Home > Products > Valid Products > MTR

000
SAUS45 KMSO 222254
MTRP69
METAR KP69 222252Z AUTO 00000KT 08/07 A2980 RMK AO1 SLP099 P0005
T00830072





000
SAUS45 KMSO 222154
MTRP69
METAR KP69 222152Z AUTO 00000KT 09/07 A2978 RMK AO1 SLP089 P0005
T00890067





000
SAUS45 KMSO 222054
MTRP69
METAR KP69 222052Z AUTO 00000KT 11/07 A2972 RMK AO1 PRESRR SLP068
T01060067 55000





000
SAUS45 KMSO 221954
MTRP69
METAR KP69 221952Z AUTO 17003KT 11/08 A2969 RMK AO1 SLP059 T01110083





000
SAUS45 KMSO 221854
MTRP69
METAR KP69 221852Z AUTO 34003KT 11/08 A2971 RMK AO1 SLP063 T01060078





000
SAUS45 KMSO 221754
MTRP69
METAR KP69 221752Z AUTO 00000KT 09/07 A2972 RMK AO1 SLP067 P0003
60007 T00890072 10094 20050 58024





000
SAUS45 KMSO 221654
MTRP69
METAR KP69 221652Z AUTO 00000KT 08/06 A2977 RMK AO1 SLP085 P0001
T00780061





000
SAUS45 KMSO 221554
MTRP69
METAR KP69 221552Z AUTO 00000KT 07/06 A2978 RMK AO1 SLP088 P0003
T00720056





000
SAUS45 KMSO 221454
MTRP69
METAR KP69 221452Z AUTO VRB03KT 06/04 A2980 RMK AO1 SLP092 T00610039
51026





000
SAUS45 KMSO 221354
MTRP69
METAR KP69 221352Z AUTO 00000KT 06/04 A2978 RMK AO1 SLP086 T00610039





000
SAUS45 KMSO 221254
MTRP69
METAR KP69 221252Z AUTO 00000KT 06/03 A2975 RMK AO1 SLP075 T00560033





000
SAUS45 KMSO 221154
MTRP69
METAR KP69 221152Z AUTO 00000KT 06/03 A2971 RMK AO1 SLP061 T00560033
10083 20050 57012





000
SAUS45 KMSO 221054
MTRP69
METAR KP69 221052Z AUTO 35004KT 06/03 A2973 RMK AO1 SLP065 T00560033





000
SAUS45 KMSO 220953
MTRP69
METAR KP69 220952Z AUTO 33005KT 06/03 A2973 RMK AO1 SLP063 T00560033





000
SAUS45 KMSO 220853
MTRP69
METAR KP69 220852Z AUTO 35005KT 06/04 A2975 RMK AO1 SLP072 T00610039
58018





000
SAUS45 KMSO 220754
MTRP69
METAR KP69 220752Z AUTO 35005KT 07/04 A2978 RMK AO1 SLP078 T00670044
402060011





000
SAUS45 KMSO 220653
MTRP69
METAR KP69 220652Z AUTO 36004KT 08/05 A2979 RMK AO1 SLP082 T00780050





000
SAUS45 KMSO 220554
MTRP69
METAR KP69 220552Z AUTO 00000KT 08/06 A2981 RMK AO1 SLP090 T00830056
10167 20083 58008





000
SAUS45 KMSO 220454
MTRP69
METAR KP69 220452Z AUTO 32004KT 09/07 A2983 RMK AO1 SLP098 T00940067





000
SAUS45 KMSO 220354
MTRP69
METAR KP69 220352Z AUTO 00000KT 11/08 A2983 RMK AO1 SLP104 T01060078





000
SAUS45 KMSO 220254
MTRP69
METAR KP69 220252Z AUTO 00000KT 12/08 A2983 RMK AO1 SLP107 T01220083
58012





000
SAUS45 KMSO 220154
MTRP69
METAR KP69 220152Z AUTO 00000KT 12/08 A2985 RMK AO1 SLP114 T01220083





000
SAUS45 KMSO 220054
MTRP69
METAR KP69 220052Z AUTO 00000KT 14/08 A2986 RMK AO1 SLP118 T01390083





000
SAUS45 KMSO 212354
MTRP69
METAR KP69 212352Z AUTO 00000KT 17/09 A2986 RMK AO1 SLP116 T01670094
10206 20156 58014





000
SAUS45 KMSO 212254
MTRP69
METAR KP69 212252Z AUTO 00000KT 18/08 A2989 RMK AO1 SLP122 T01830083





000
SAUS45 KMSO 212153
MTRP69
METAR KP69 212152Z AUTO 16008KT 19/04 A2990 RMK AO1 SLP125 T01940039





000
SAUS45 KMSO 212054
MTRP69
METAR KP69 212052Z AUTO 00000KT 17/07 A2991 RMK AO1 SLP129 T01720072
56044





000
SAUS45 KMSO 211954
MTRP69
METAR KP69 211952Z AUTO 00000KT 19/03 A2994 RMK AO1 SLP134 T01940028





000
SAUS45 KMSO 211854
MTRP69
METAR KP69 211852Z AUTO 00000KT 18/01 A2998 RMK AO1 SLP151 T01830011





000
SAUS45 KMSO 211753
MTRP69
METAR KP69 211752Z AUTO VRB03KT 16/02 A3004 RMK AO1 SLP173 T01610017
10161 20011 58049





000
SAUS45 KMSO 211653
MTRP69
METAR KP69 211652Z AUTO 03003KT 13/01 A3010 RMK AO1 PRESFR SLP195
T01330006





000
SAUS45 KMSO 211553
MTRP69
METAR KP69 211552Z AUTO VRB03KT 09/00 A3015 RMK AO1 SLP216 T00890000





000
SAUS45 KMSO 211453
MTRP69
METAR KP69 211452Z AUTO 01004KT 03/01 A3020 RMK AO1 SLP236 T00330006
58023





000
SAUS45 KMSO 211353
MTRP69
METAR KP69 211352Z AUTO 35005KT 02/00 A3023 RMK AO1 SLP248 T00170000





000
SAUS45 KMSO 211254
MTRP69
METAR KP69 211252Z AUTO 33006KT 02/00 A3025 RMK AO1 SLP253 T00170000





000
SAUS45 KMSO 211154
MTRP69
METAR KP69 211152Z AUTO 33006KT 02/01 A3027 RMK AO1 SLP254 T00220006
10061 20017 58008





000
SAUS45 KMSO 211054
MTRP69
METAR KP69 211052Z AUTO 35004KT 02/01 A3027 RMK AO1 SLP255 T00220006





000
SAUS45 KMSO 210954
MTRP69
METAR KP69 210952Z AUTO 34004KT 03/01 A3028 RMK AO1 SLP258 T00280011





000
SAUS45 KMSO 210853
MTRP69
METAR KP69 210852Z AUTO 32005KT 04/02 A3029 RMK AO1 SLP258 T00390017
51006





000
SAUS45 KMSO 210754
MTRP69
METAR KP69 210752Z AUTO VRB03KT 04/02 A3029 RMK AO1 SLP260 T00440017
401890044





000
SAUS45 KMSO 210654
MTRP69
METAR KP69 210652Z AUTO 33004KT 05/02 A3029 RMK AO1 SLP258 T00500022





000
SAUS45 KMSO 210553
MTRP69
METAR KP69 210552Z AUTO 00000KT 06/02 A3027 RMK AO1 SLP254 T00610022
10150 20061 51013





000
SAUS45 KMSO 210453
MTRP69
METAR KP69 210452Z AUTO 33004KT 07/03 A3027 RMK AO1 SLP255 T00670028





000
SAUS45 KMSO 210353
MTRP69
METAR KP69 210352Z AUTO 00000KT 08/03 A3026 RMK AO1 SLP253 T00780033





000
SAUS45 KMSO 210253
MTRP69
METAR KP69 210252Z AUTO 00000KT 08/04 A3023 RMK AO1 SLP245 T00830039
53003





000
SAUS45 KMSO 210153
MTRP69
METAR KP69 210152Z AUTO 35003KT 11/03 A3022 RMK AO1 SLP240 T01110033





000
SAUS45 KMSO 210053
MTRP69
METAR KP69 210052Z AUTO 00000KT 13/04 A3022 RMK AO1 SLP239 T01280039





000
SAUS45 KMSO 202354
MTRP69
METAR KP69 202352Z AUTO 00000KT 16/00 A3022 RMK AO1 SLP236 T01560000
10189 20133 56008





000
SAUS45 KMSO 202254
MTRP69
METAR KP69 202252Z AUTO 16008KT 18/M01 A3022 RMK AO1 SLP234
T01781011





000
SAUS45 KMSO 202154
MTRP69
METAR KP69 202152Z AUTO VRB03KT 18/M01 A3023 RMK AO1 SLP234
T01781006





000
SAUS45 KMSO 202054
MTRP69
METAR KP69 202052Z AUTO 00000KT 18/M03 A3025 RMK AO1 SLP240
T01781028 58020





000
SAUS45 KMSO 201954
MTRP69
METAR KP69 201952Z AUTO 00000KT 16/M01 A3027 RMK AO1 SLP249
T01561006





000
SAUS45 KMSO 201854
MTRP69
METAR KP69 201852Z AUTO VRB04KT 16/01 A3029 RMK AO1 SLP257 T01560006





000
SAUS45 KMSO 201753
MTRP69
METAR KP69 201752Z AUTO 17003KT 13/02 A3031 RMK AO1 SLP264 T01330017
10144 20050 58005





000
SAUS45 KMSO 201654
MTRP69
METAR KP69 201652Z AUTO 00000KT 11/04 A3032 RMK AO1 SLP271 T01060044





000
SAUS45 KMSO 201554
MTRP69
METAR KP69 201552Z AUTO 00000KT 08/04 A3033 RMK AO1 SLP271 T00830044





000
SAUS45 KMSO 201454
MTRP69
METAR KP69 201452Z AUTO 35003KT 06/04 A3032 RMK AO1 SLP268 T00610044
51016





    US Dept of Commerce
    National Oceanic and Atmospheric Administration
    National Weather Service
    1325 East West Highway
    Silver Spring, MD 20910
    Page Author: NWS Internet Services Team
Disclaimer
Information Quality
Credits
Glossary
Privacy Policy
Freedom of Information Act (FOIA)
About Us
Career Opportunities